Crocker, South Dakota
Current Conditions -  °F | °C
As of 11:53 PM on Friday 28 Nov 2014 (Local Time) from KATY Reporting Station
Clear Clear  
Wind Chill: 11°   Ceiling: Unl
Heat Index: 23°   Visibility: 7mi
Dew Point: 21°   Wind: 13mph
Humidity: 92%   Direction: 170°S
Pressure: 29.5"   Gusts: NA
Location:  45.0652°N, 97.616°W
Report Text: KATY 290553Z AUTO 17011KT 7SM CLR M05/M06 A2950 RMK AO2 SLP015 I6000 T10501061 11050 21089 410501106 56031
Loading
Personal Weather Stations






























Interactive Weather Map New forecast layout! Learn more

10-Day Weather Forecast

Advertisements
Track Severe Weather on mobile